Time;durP1;ratioP1;P1;durP2;ratioP2;P2;SDS_P1;SDS_P2;PMS_P1;PMS_P2;Temp;Humidity;BMP_temperature;BMP_pressure;BME280_temperature;BME280_humidity;BME280_pressure;Samples;Min_cycle;Max_cycle;Signal;HPM_P1;HPM_P2
2023/05/08 00:01:34;;;;;;;10.02;6.07;;;;;;;13.16;54.21;99550.84;4314319;33;34013;-86
2023/05/08 00:04:01;;;;;;;7.20;5.05;;;;;;;12.99;54.82;99555.88;4315558;33;34060;-86
2023/05/08 00:06:29;;;;;;;7.20;5.20;;;;;;;12.85;55.07;99558.37;4314488;33;33519;-88
2023/05/08 00:08:57;;;;;;;9.02;6.07;;;;;;;12.77;55.29;99549.63;4315164;33;33338;-85
2023/05/08 00:11:24;;;;;;;7.53;5.85;;;;;;;12.80;55.01;99548.78;4316163;33;33429;-85
2023/05/08 00:13:52;;;;;;;7.53;5.40;;;;;;;12.82;55.00;99553.16;4315492;33;34066;-88
2023/05/08 00:16:19;;;;;;;7.53;5.40;;;;;;;12.81;54.86;99551.41;4314258;33;33673;-85
2023/05/08 00:18:47;;;;;;;7.93;5.90;;;;;;;12.72;55.34;99550.44;4315247;33;34120;-87
2023/05/08 00:21:14;;;;;;;11.88;5.78;;;;;;;12.69;55.19;99553.91;4315251;33;35279;-85
2023/05/08 00:23:42;;;;;;;9.65;5.85;;;;;;;12.65;55.41;99553.00;4315128;33;33702;-86
2023/05/08 00:26:09;;;;;;;11.25;6.35;;;;;;;12.65;55.37;99542.59;4316010;33;34024;-86
2023/05/08 00:28:37;;;;;;;8.55;6.12;;;;;;;13.04;54.49;99551.63;4313620;33;33592;-85
2023/05/08 00:31:05;;;;;;;9.18;5.68;;;;;;;12.91;54.66;99552.34;4315273;33;34356;-86
2023/05/08 00:33:33;;;;;;;8.68;5.82;;;;;;;12.73;55.11;99554.75;4313868;33;34044;-87
2023/05/08 00:36:01;;;;;;;8.25;5.70;;;;;;;12.58;55.45;99555.50;4315663;33;33605;-86
2023/05/08 00:38:30;;;;;;;8.15;5.93;;;;;;;12.76;55.31;99557.41;4301217;33;34043;-88
2023/05/08 00:40:58;;;;;;;8.45;5.82;;;;;;;12.90;54.84;99561.91;4302136;33;34538;-87
2023/05/08 00:43:27;;;;;;;8.77;5.78;;;;;;;12.87;54.55;99561.00;4301060;33;33567;-86
2023/05/08 00:45:55;;;;;;;7.45;4.82;;;;;;;12.67;55.13;99558.19;4302226;33;34248;-87
2023/05/08 00:48:24;;;;;;;7.85;5.82;;;;;;;12.81;54.90;99566.16;4302087;33;35072;-89
2023/05/08 00:50:52;;;;;;;8.32;5.97;;;;;;;12.63;55.24;99565.09;4302078;33;33309;-87
2023/05/08 00:53:21;;;;;;;8.23;6.00;;;;;;;12.50;55.86;99568.44;4299755;33;34976;-88
2023/05/08 00:55:50;;;;;;;9.13;6.18;;;;;;;12.56;55.71;99565.87;4301683;33;34084;-87
2023/05/08 00:58:20;;;;;;;15.32;6.97;;;;;;;12.46;56.16;99573.56;4291032;33;33962;-89
2023/05/08 01:00:49;;;;;;;9.50;6.20;;;;;;;12.69;55.89;99561.69;4313066;33;34423;-89
2023/05/08 01:03:17;;;;;;;8.90;5.85;;;;;;;12.86;55.42;99567.06;4294729;33;34965;-87
2023/05/08 01:05:47;;;;;;;8.27;5.75;;;;;;;12.61;56.12;99572.03;4299700;33;33787;-88
2023/05/08 01:08:15;;;;;;;9.52;6.18;;;;;;;12.69;56.21;99577.31;4301705;33;33226;-85
2023/05/08 01:11:07;;;;;;;8.88;6.37;;;;;;;12.88;56.12;99583.56;4301789;33;34018;-89
2023/05/08 01:13:40;;;;;;;10.40;6.30;;;;;;;12.89;55.99;99580.09;4299321;33;33710;-87
2023/05/08 01:16:17;;;;;;;7.75;5.72;;;;;;;12.96;55.98;99581.91;4301789;33;33564;-86
2023/05/08 01:19:29;;;;;;;8.15;5.82;;;;;;;12.82;56.32;99578.28;4300722;33;33485;-87
2023/05/08 01:22:49;;;;;;;9.40;6.37;;;;;;;12.78;56.42;99582.59;4298564;33;34367;-86
2023/05/08 01:25:29;;;;;;;8.38;5.60;;;;;;;12.65;56.46;99586.81;4293314;33;34860;-86
2023/05/08 01:28:10;;;;;;;8.77;5.80;;;;;;;12.55;56.40;99589.28;4314535;33;34405;-89
2023/05/08 01:31:17;;;;;;;8.65;6.43;;;;;;;12.38;57.09;99596.84;4300687;33;33342;-89
2023/05/08 01:34:05;;;;;;;9.68;6.05;;;;;;;12.31;57.43;99595.94;4299087;33;34703;-85
2023/05/08 01:36:44;;;;;;;8.65;6.28;;;;;;;12.61;56.55;99595.44;4310259;33;33540;-88
2023/05/08 01:39:21;;;;;;;8.52;6.62;;;;;;;12.47;56.84;99602.19;4291950;33;33880;-84
2023/05/08 01:42:03;;;;;;;9.15;6.60;;;;;;;12.40;57.25;99605.56;4287631;33;32949;-83
2023/05/08 01:44:35;;;;;;;10.48;6.37;;;;;;;12.47;57.12;99602.19;4301465;33;34284;-86
2023/05/08 01:47:06;;;;;;;8.38;6.47;;;;;;;12.30;57.57;99608.91;4302348;33;34107;-86
2023/05/08 01:49:44;;;;;;;9.13;6.53;;;;;;;12.32;57.63;99605.47;4301058;33;34793;-85
2023/05/08 01:52:20;;;;;;;9.57;6.50;;;;;;;12.39;57.40;99609.03;4289462;33;34247;-84
2023/05/08 01:54:57;;;;;;;9.45;6.20;;;;;;;12.55;56.88;99605.75;4316302;33;34095;-83
2023/05/08 01:57:27;;;;;;;7.53;5.80;;;;;;;12.35;57.28;99615.91;4300387;33;34266;-85
2023/05/08 01:59:57;;;;;;;9.48;6.25;;;;;;;12.52;57.03;99616.09;4291106;33;34022;-82
2023/05/08 02:02:25;;;;;;;9.35;6.05;;;;;;;12.56;56.57;99607.50;4301214;33;34058;-84
2023/05/08 02:04:53;;;;;;;8.82;6.18;;;;;;;12.58;56.22;99610.13;4302805;33;34183;-86
2023/05/08 02:07:21;;;;;;;10.70;6.05;;;;;;;12.38;56.70;99608.12;4316617;33;34035;-85
2023/05/08 02:09:49;;;;;;;8.38;6.22;;;;;;;12.51;56.36;99619.56;4290199;33;33080;-83
2023/05/08 02:12:17;;;;;;;9.48;6.50;;;;;;;12.53;56.05;99623.03;4317066;33;33481;-84
2023/05/08 02:14:46;;;;;;;9.75;6.90;;;;;;;12.36;56.31;99622.00;4315711;33;34002;-83
2023/05/08 02:17:15;;;;;;;9.52;6.47;;;;;;;12.24;56.63;99621.84;4301449;33;33811;-82
2023/05/08 02:19:43;;;;;;;8.50;6.07;;;;;;;12.24;56.84;99620.09;4302875;33;33965;-85
2023/05/08 02:22:12;;;;;;;8.57;6.35;;;;;;;12.34;56.52;99623.69;4302515;33;34213;-86
2023/05/08 02:24:41;;;;;;;8.63;6.28;;;;;;;12.27;56.19;99624.44;4302286;33;33889;-82
2023/05/08 02:27:09;;;;;;;9.18;6.60;;;;;;;12.24;56.55;99629.63;4311399;33;34914;-85
2023/05/08 02:29:37;;;;;;;8.30;6.30;;;;;;;12.09;56.75;99631.16;4301438;33;33404;-83
2023/05/08 02:32:05;;;;;;;8.60;6.28;;;;;;;12.09;56.79;99630.28;4316868;33;33216;-83
2023/05/08 02:34:34;;;;;;;11.05;6.80;;;;;;;12.14;56.41;99626.87;4302307;33;33979;-84
2023/05/08 02:37:02;;;;;;;9.10;6.55;;;;;;;12.02;56.79;99629.31;4316436;33;34668;-84
2023/05/08 02:39:30;;;;;;;9.55;6.72;;;;;;;12.39;55.51;99624.62;4301665;33;34132;-85
2023/05/08 02:41:59;;;;;;;8.10;6.72;;;;;;;12.07;56.19;99624.19;4315036;33;34319;-86
2023/05/08 02:44:28;;;;;;;10.70;7.07;;;;;;;11.97;56.39;99631.00;4315662;33;33500;-85
2023/05/08 02:47:02;;;;;;;9.15;6.97;;;;;;;12.06;56.24;99625.91;4311072;33;34257;-87
2023/05/08 02:49:58;;;;;;;13.43;8.07;;;;;;;11.98;56.37;99629.25;4307239;33;33946;-85
2023/05/08 02:52:28;;;;;;;9.80;8.02;;;;;;;12.23;55.77;99633.06;4312631;33;34221;-86
2023/05/08 02:55:04;;;;;;;10.20;8.80;;;;;;;11.76;56.51;99630.63;4290855;33;32916;-87
2023/05/08 02:57:41;;;;;;;11.03;8.80;;;;;;;11.77;56.81;99629.78;4302055;33;34150;-84
2023/05/08 03:00:22;;;;;;;10.85;9.07;;;;;;;11.81;56.70;99635.03;4315100;33;34710;-86
2023/05/08 03:02:59;;;;;;;10.55;8.40;;;;;;;11.86;56.51;99637.75;4302758;33;34234;-86
2023/05/08 03:05:33;;;;;;;11.12;9.05;;;;;;;11.69;57.04;99630.53;4289241;33;33779;-84
2023/05/08 03:08:06;;;;;;;12.45;9.85;;;;;;;11.79;56.77;99636.75;4302148;33;33822;-86
2023/05/08 03:10:36;;;;;;;12.48;10.05;;;;;;;11.63;57.33;99633.03;4306759;33;33799;-86
2023/05/08 03:13:05;;;;;;;15.45;11.20;;;;;;;11.56;57.28;99638.13;4303704;33;33395;-86
2023/05/08 03:15:36;;;;;;;14.87;11.27;;;;;;;11.75;56.85;99632.34;4301751;33;34386;-86
2023/05/08 03:18:07;;;;;;;14.02;12.18;;;;;;;11.63;57.49;99635.63;4302094;33;33361;-85
2023/05/08 03:20:37;;;;;;;15.30;11.88;;;;;;;11.54;57.81;99639.78;4302526;33;33721;-85
2023/05/08 03:23:07;;;;;;;15.13;12.77;;;;;;;11.89;57.35;99642.97;4305488;33;33441;-84
2023/05/08 03:25:35;;;;;;;16.08;12.05;;;;;;;11.55;58.19;99637.22;4303161;33;34027;-83
2023/05/08 03:28:04;;;;;;;16.62;13.73;;;;;;;11.55;58.71;99638.94;4303203;33;34540;-85
2023/05/08 03:30:35;;;;;;;17.90;13.52;;;;;;;11.72;58.43;99639.22;4303384;33;34317;-88
2023/05/08 03:33:06;;;;;;;16.80;14.05;;;;;;;11.63;58.78;99642.53;4303628;33;33382;-84
2023/05/08 03:35:35;;;;;;;16.52;13.60;;;;;;;11.76;58.46;99641.03;4302352;33;33537;-87
2023/05/08 03:38:04;;;;;;;18.23;14.80;;;;;;;11.87;58.30;99647.28;4316647;33;34603;-85
2023/05/08 03:40:35;;;;;;;15.95;14.05;;;;;;;11.56;59.17;99644.19;4303797;33;31495;-86
2023/05/08 03:43:06;;;;;;;17.62;14.87;;;;;;;11.60;59.13;99645.97;4316955;33;33132;-86
2023/05/08 03:45:38;;;;;;;16.60;13.98;;;;;;;11.73;58.84;99648.75;4290397;33;33251;-85
2023/05/08 03:48:07;;;;;;;18.65;14.30;;;;;;;11.77;58.60;99648.81;4315887;33;34219;-86
2023/05/08 03:50:37;;;;;;;18.25;13.50;;;;;;;11.90;58.13;99645.63;4315754;33;34099;-87
2023/05/08 03:53:04;;;;;;;16.25;13.35;;;;;;;11.98;58.10;99648.31;4304145;33;33713;-86
2023/05/08 03:55:32;;;;;;;17.90;13.80;;;;;;;11.93;58.21;99652.56;4313367;33;34685;-86
2023/05/08 03:58:23;;;;;;;15.88;12.10;;;;;;;11.75;58.73;99652.28;4316184;33;34279;-86
2023/05/08 04:00:52;;;;;;;15.98;12.63;;;;;;;12.15;58.09;99646.81;4303815;33;33769;-85
2023/05/08 04:04:00;;;;;;;16.52;12.65;;;;;;;11.89;58.84;99648.16;4315474;33;34787;-88
2023/05/08 04:06:32;;;;;;;14.68;12.05;;;;;;;12.03;59.27;99650.97;4269573;33;34132;-86
2023/05/08 04:09:23;;;;;;;15.30;12.30;;;;;;;12.01;59.24;99653.56;4300856;33;32869;-88
2023/05/08 04:11:55;;;;;;;14.13;11.90;;;;;;;12.05;58.96;99655.38;4302952;33;34082;-86
2023/05/08 04:14:25;;;;;;;15.15;10.70;;;;;;;11.95;59.16;99657.78;4315480;33;33856;-86
2023/05/08 04:16:56;;;;;;;14.48;10.60;;;;;;;12.10;59.38;99658.87;4318176;33;34749;-87
2023/05/08 04:19:27;;;;;;;19.55;14.98;;;;;;;12.14;59.75;99671.06;4298745;33;34252;-88
2023/05/08 04:21:58;;;;;;;19.83;15.75;;;;;;;12.35;59.73;99672.22;4307984;33;33996;-88
2023/05/08 04:24:27;;;;;;;17.98;13.35;;;;;;;12.09;61.03;99677.94;4300638;33;33466;-89
2023/05/08 04:26:55;;;;;;;18.85;14.55;;;;;;;12.20;60.95;99677.19;4297661;33;34026;-89
2023/05/08 04:29:23;;;;;;;21.12;16.98;;;;;;;12.33;60.62;99676.53;4299544;33;35022;-86
2023/05/08 04:31:51;;;;;;;20.12;15.35;;;;;;;12.28;60.84;99678.22;4309283;33;33792;-85
2023/05/08 04:34:19;;;;;;;18.65;15.35;;;;;;;12.52;60.46;99682.84;4282143;33;32288;-86
2023/05/08 04:36:47;;;;;;;19.98;16.83;;;;;;;12.34;60.39;99686.94;4302999;33;33992;-87
2023/05/08 04:39:15;;;;;;;21.55;17.20;;;;;;;12.61;59.87;99688.16;4300363;33;34203;-87
2023/05/08 04:41:42;;;;;;;23.92;17.00;;;;;;;12.51;60.35;99687.19;4298620;33;31963;-85
2023/05/08 04:44:10;;;;;;;22.17;17.75;;;;;;;12.77;59.46;99691.88;4296623;33;32869;-86
2023/05/08 04:46:38;;;;;;;20.70;16.90;;;;;;;12.69;59.72;99694.38;4296998;33;34089;-88
2023/05/08 04:49:06;;;;;;;19.30;16.02;;;;;;;12.71;59.64;99702.19;4297035;33;34159;-86
2023/05/08 04:51:33;;;;;;;18.20;14.98;;;;;;;12.91;59.05;99696.34;4299875;33;33637;-85
2023/05/08 04:54:01;;;;;;;22.42;15.75;;;;;;;12.60;60.16;99705.50;4301116;33;34351;-86
2023/05/08 04:56:29;;;;;;;19.08;15.00;;;;;;;12.56;60.16;99716.72;4301565;33;34610;-88
2023/05/08 04:58:56;;;;;;;20.52;15.40;;;;;;;12.43;60.77;99716.56;4297383;33;34198;-88
2023/05/08 05:01:24;;;;;;;20.65;16.60;;;;;;;11.91;62.44;99714.03;4296480;33;34103;-88
2023/05/08 05:03:52;;;;;;;20.40;15.02;;;;;;;12.55;60.70;99719.31;4305826;33;33495;-87
2023/05/08 05:06:19;;;;;;;20.70;15.77;;;;;;;12.58;60.25;99720.25;4301675;33;34111;-91
2023/05/08 05:08:47;;;;;;;19.73;16.77;;;;;;;12.61;60.18;99725.50;4301586;33;35522;-87
2023/05/08 05:11:15;;;;;;;21.40;16.58;;;;;;;12.37;60.68;99725.13;4307046;33;33241;-89
2023/05/08 05:13:42;;;;;;;18.67;15.07;;;;;;;12.68;59.92;99718.63;4316153;33;33126;-89
2023/05/08 05:16:10;;;;;;;18.50;14.10;;;;;;;12.10;61.03;99721.25;4316248;33;34060;-88
2023/05/08 05:18:38;;;;;;;19.48;14.60;;;;;;;12.55;59.43;99725.38;4309541;33;34196;-89
2023/05/08 05:21:05;;;;;;;16.73;13.13;;;;;;;12.55;59.40;99719.31;4315764;33;34783;-89
2023/05/08 05:23:33;;;;;;;16.20;12.73;;;;;;;12.88;59.15;99721.50;4315949;33;34004;-86
2023/05/08 05:26:01;;;;;;;15.52;11.80;;;;;;;12.83;58.78;99726.63;4317194;33;34835;-88
2023/05/08 05:28:29;;;;;;;13.43;10.20;;;;;;;13.07;57.99;99726.06;4304073;33;34867;-86
2023/05/08 05:30:57;;;;;;;12.75;10.05;;;;;;;13.07;57.37;99719.97;4316929;33;34669;-89
2023/05/08 05:33:25;;;;;;;13.50;9.10;;;;;;;13.23;56.34;99724.53;4291392;33;33927;-88
2023/05/08 05:35:52;;;;;;;13.35;9.25;;;;;;;13.33;55.98;99722.88;4317068;33;33681;-90
2023/05/08 05:38:20;;;;;;;14.10;10.43;;;;;;;13.34;56.26;99730.72;4304654;33;33838;-88
2023/05/08 05:40:48;;;;;;;15.20;11.25;;;;;;;12.70;56.91;99734.25;4317742;33;33697;-88
2023/05/08 05:43:15;;;;;;;16.60;11.25;;;;;;;13.43;55.39;99724.72;4317567;33;34306;-89
2023/05/08 05:45:43;;;;;;;15.60;12.15;;;;;;;13.34;56.48;99735.06;4304187;33;34037;-88
2023/05/08 05:48:11;;;;;;;16.12;12.60;;;;;;;12.86;57.78;99744.00;4317439;33;34610;-89
2023/05/08 05:50:39;;;;;;;17.85;11.68;;;;;;;13.08;57.38;99743.41;4317633;33;34763;-88
2023/05/08 05:53:07;;;;;;;17.58;11.07;;;;;;;13.45;56.47;99743.88;4317421;33;34661;-89
2023/05/08 05:55:34;;;;;;;16.20;9.75;;;;;;;13.62;56.21;99744.88;4317500;33;34772;-89
2023/05/08 05:58:02;;;;;;;12.80;8.73;;;;;;;13.78;55.48;99742.41;4316162;33;34382;-89
2023/05/08 06:00:30;;;;;;;11.12;7.03;;;;;;;13.72;55.12;99742.37;4317297;33;33905;-88
2023/05/08 06:02:59;;;;;;;10.65;7.12;;;;;;;13.34;54.50;99746.34;4317478;33;33613;-89
2023/05/08 06:05:27;;;;;;;7.82;4.87;;;;;;;13.75;53.97;99742.37;4317766;33;33861;-89
2023/05/08 06:07:55;;;;;;;8.10;4.95;;;;;;;13.19;51.21;99740.06;4316925;33;34169;-90
2023/05/08 06:10:23;;;;;;;7.93;3.97;;;;;;;13.06;52.42;99744.25;4317014;33;33508;-87
2023/05/08 06:12:50;;;;;;;6.45;4.70;;;;;;;13.35;51.40;99732.47;4304180;33;32986;-88
2023/05/08 06:15:18;;;;;;;7.37;4.55;;;;;;;13.44;51.71;99736.00;4309265;33;33422;-85
2023/05/08 06:17:46;;;;;;;12.30;4.40;;;;;;;13.52;52.34;99734.34;4302725;33;34049;-87
2023/05/08 06:20:13;;;;;;;7.18;3.58;;;;;;;13.71;51.40;99743.22;4302928;33;33729;-87
2023/05/08 06:22:41;;;;;;;6.55;3.90;;;;;;;12.96;50.91;99751.09;4289434;33;33636;-87
2023/05/08 06:25:09;;;;;;;6.82;4.32;;;;;;;13.38;50.46;99744.66;4302685;33;34788;-88
2023/05/08 06:27:37;;;;;;;6.00;3.50;;;;;;;13.31;50.25;99745.44;4305790;33;33939;-88
2023/05/08 06:30:09;;;;;;;7.62;3.90;;;;;;;13.15;50.86;99742.63;4315737;33;34094;-87
2023/05/08 06:32:37;;;;;;;12.95;3.78;;;;;;;13.57;51.01;99748.31;4302476;33;33561;-87
2023/05/08 06:35:05;;;;;;;6.05;3.35;;;;;;;13.77;51.22;99738.09;4302763;33;33542;-86
2023/05/08 06:37:32;;;;;;;5.18;2.75;;;;;;;13.82;49.47;99745.06;4301900;33;34575;-87
2023/05/08 06:40:00;;;;;;;5.37;2.50;;;;;;;13.82;49.27;99752.00;4298510;33;34934;-87
2023/05/08 06:42:39;;;;;;;5.87;2.80;;;;;;;13.83;47.50;99751.19;4317008;33;34552;-88
2023/05/08 06:45:08;;;;;;;4.43;2.30;;;;;;;13.80;47.36;99753.75;4303873;33;33930;-88
2023/05/08 06:47:35;;;;;;;4.32;1.80;;;;;;;13.86;47.07;99751.19;4303958;33;34011;-89
2023/05/08 06:50:03;;;;;;;4.15;1.87;;;;;;;13.77;47.33;99756.31;4298851;33;33847;-87
2023/05/08 06:52:31;;;;;;;5.22;2.28;;;;;;;13.91;46.95;99746.91;4289346;33;32565;-87
2023/05/08 06:54:59;;;;;;;4.87;1.83;;;;;;;14.07;46.74;99753.97;4289505;33;33915;-87
2023/05/08 06:57:29;;;;;;;4.32;2.22;;;;;;;14.16;46.23;99752.28;4289036;33;33585;-84
2023/05/08 06:59:57;;;;;;;4.30;1.77;;;;;;;14.19;45.60;99754.94;4302419;33;33900;-87
2023/05/08 07:02:24;;;;;;;3.20;1.70;;;;;;;14.12;46.68;99757.47;4289621;33;32654;-86
2023/05/08 07:04:53;;;;;;;4.47;1.87;;;;;;;14.37;46.54;99752.47;4282173;33;33946;-88
2023/05/08 07:07:21;;;;;;;3.45;1.65;;;;;;;14.40;45.14;99757.72;4316333;33;34342;-87
2023/05/08 07:09:48;;;;;;;4.90;2.03;;;;;;;14.26;46.15;99756.72;4317191;33;34649;-87
2023/05/08 07:12:16;;;;;;;5.70;2.50;;;;;;;13.99;46.79;99760.88;4316981;33;34349;-88
2023/05/08 07:14:44;;;;;;;5.18;2.22;;;;;;;14.14;45.57;99757.50;4316855;33;34072;-88
2023/05/08 07:17:11;;;;;;;5.85;2.90;;;;;;;14.65;46.76;99768.31;4316633;33;33775;-86
2023/05/08 07:19:39;;;;;;;2.62;1.30;;;;;;;15.16;44.79;99764.22;4316760;33;34749;-87
2023/05/08 07:22:07;;;;;;;2.53;1.48;;;;;;;15.38;42.30;99755.59;4303529;33;33425;-86
2023/05/08 07:24:34;;;;;;;3.83;2.10;;;;;;;15.39;42.92;99757.34;4316334;33;33950;-85
2023/05/08 07:27:01;;;;;;;5.97;2.83;;;;;;;15.39;43.12;99757.34;4316456;33;34284;-86
2023/05/08 07:29:29;;;;;;;5.75;2.70;;;;;;;15.66;43.05;99751.31;4316804;33;33636;-84
2023/05/08 07:31:57;;;;;;;36.88;18.42;;;;;;;15.80;42.41;99752.22;4317003;33;32931;-86
2023/05/08 07:34:24;;;;;;;13.05;6.10;;;;;;;15.42;42.61;99751.22;4317207;33;33686;-88
2023/05/08 07:36:52;;;;;;;8.60;3.10;;;;;;;15.30;43.79;99757.28;4317036;33;35040;-86
2023/05/08 07:39:20;;;;;;;7.90;2.28;;;;;;;15.38;42.84;99757.31;4303656;33;34003;-87
2023/05/08 07:41:47;;;;;;;3.15;1.42;;;;;;;15.73;43.44;99754.81;4303802;33;33367;-87
2023/05/08 07:44:16;;;;;;;3.67;1.50;;;;;;;16.13;43.38;99765.28;4305805;33;34275;-85
2023/05/08 07:46:44;;;;;;;4.28;1.55;;;;;;;15.57;42.50;99770.44;4302401;33;35141;-87
2023/05/08 07:49:11;;;;;;;7.62;2.97;;;;;;;15.94;42.70;99762.66;4300999;33;34976;-86
2023/05/08 07:51:40;;;;;;;5.78;1.90;;;;;;;15.93;40.42;99758.31;4305937;33;33710;-84
2023/05/08 07:54:07;;;;;;;3.67;1.50;;;;;;;15.70;43.45;99762.66;4316303;33;33958;-87
2023/05/08 07:56:35;;;;;;;5.18;1.80;;;;;;;15.87;41.84;99760.03;4316840;33;34321;-87
2023/05/08 07:59:02;;;;;;;3.42;1.58;;;;;;;16.14;40.29;99757.47;4315337;33;34099;-86
2023/05/08 08:01:30;;;;;;;6.05;1.58;;;;;;;16.03;41.25;99770.53;4316432;33;33491;-86
2023/05/08 08:03:58;;;;;;;3.33;1.60;;;;;;;16.41;41.36;99758.31;4316723;33;33989;-89
2023/05/08 08:06:25;;;;;;;2.92;1.50;;;;;;;16.29;41.05;99765.28;4316708;33;34979;-88
2023/05/08 08:08:53;;;;;;;3.47;1.70;;;;;;;16.29;40.93;99760.06;4315297;33;33649;-88
2023/05/08 08:11:21;;;;;;;4.85;1.60;;;;;;;16.69;39.36;99752.13;4303364;33;33565;-87
2023/05/08 08:13:48;;;;;;;4.25;1.60;;;;;;;16.87;40.51;99753.00;4316372;33;33966;-88
2023/05/08 08:16:16;;;;;;;2.95;1.35;;;;;;;17.18;38.99;99753.72;4315151;33;34989;-87
2023/05/08 08:18:44;;;;;;;3.20;1.62;;;;;;;17.16;39.66;99751.13;4312322;33;34929;-91
2023/05/08 08:21:11;;;;;;;4.82;1.70;;;;;;;16.99;39.78;99752.94;4316663;33;34201;-86
2023/05/08 08:23:38;;;;;;;4.82;1.52;;;;;;;16.74;40.26;99749.53;4316681;33;35669;-87
2023/05/08 08:26:06;;;;;;;3.45;1.30;;;;;;;16.49;41.23;99762.66;4314255;33;33975;-87
2023/05/08 08:28:33;;;;;;;3.45;1.40;;;;;;;16.86;41.11;99762.59;4305139;33;34126;-87
2023/05/08 08:31:01;;;;;;;5.03;1.42;;;;;;;16.88;40.60;99750.34;4301779;33;33329;-86
2023/05/08 08:33:30;;;;;;;5.20;1.40;;;;;;;17.34;39.95;99758.00;4307968;33;33967;-87
2023/05/08 08:35:57;;;;;;;4.37;1.58;;;;;;;17.61;38.87;99748.25;4310294;33;34854;-86
2023/05/08 08:38:25;;;;;;;4.80;1.48;;;;;;;17.96;37.24;99748.91;4301810;33;34466;-86
2023/05/08 08:40:53;;;;;;;3.03;1.40;;;;;;;17.93;37.30;99745.44;4316114;33;34342;-87
2023/05/08 08:43:20;;;;;;;3.42;1.40;;;;;;;16.76;40.30;99756.50;4315500;33;34251;-87
2023/05/08 08:45:48;;;;;;;3.17;1.15;;;;;;;17.06;38.61;99754.66;4308886;33;34207;-88
2023/05/08 08:48:15;;;;;;;4.18;1.40;;;;;;;17.23;38.96;99749.31;4301696;33;33787;-88
2023/05/08 08:50:46;;;;;;;5.35;1.15;;;;;;;17.86;38.13;99755.09;4302085;33;34127;-87
2023/05/08 08:53:26;;;;;;;3.42;1.50;;;;;;;17.96;38.29;99748.91;4310506;33;33811;-88
2023/05/08 08:55:57;;;;;;;2.20;1.05;;;;;;;18.06;37.81;99752.31;4330331;33;34925;-88
2023/05/08 08:58:39;;;;;;;4.00;1.40;;;;;;;18.01;37.08;99748.00;4330746;33;33806;-89
2023/05/08 09:01:08;;;;;;;3.15;1.35;;;;;;;17.31;38.72;99750.16;4308430;33;33011;-86
2023/05/08 09:03:36;;;;;;;3.28;1.37;;;;;;;17.08;38.45;99750.28;4302629;33;34967;-90
2023/05/08 09:06:04;;;;;;;2.75;1.10;;;;;;;17.75;38.02;99751.69;4297922;33;33751;-85
2023/05/08 09:08:32;;;;;;;3.30;1.40;;;;;;;18.00;37.54;99752.38;4301233;33;33922;-85
2023/05/08 09:11:00;;;;;;;3.10;1.33;;;;;;;17.97;36.84;99762.88;4298118;33;33675;-87
2023/05/08 09:13:29;;;;;;;2.17;1.20;;;;;;;18.70;36.58;99745.56;4295319;33;34051;-86
2023/05/08 09:15:58;;;;;;;3.30;1.08;;;;;;;18.63;35.12;99743.91;4307313;33;34629;-88
2023/05/08 09:18:25;;;;;;;1.98;0.90;;;;;;;18.69;34.73;99754.34;4315495;33;34122;-88
2023/05/08 09:20:53;;;;;;;2.47;1.08;;;;;;;18.81;35.71;99748.13;4315625;33;34256;-87
2023/05/08 09:23:20;;;;;;;3.80;1.08;;;;;;;18.71;35.06;99748.25;4310905;33;34862;-87
2023/05/08 09:25:49;;;;;;;2.33;0.95;;;;;;;18.18;35.07;99751.34;4315111;33;33820;-86
2023/05/08 09:28:21;;;;;;;3.90;1.05;;;;;;;18.56;36.06;99743.13;4315494;33;34741;-86
2023/05/08 09:30:54;;;;;;;2.40;1.10;;;;;;;18.58;35.80;99750.97;4290181;33;33255;-87
2023/05/08 09:33:24;;;;;;;2.75;1.02;;;;;;;18.94;34.87;99744.44;4300512;33;34192;-87
2023/05/08 09:35:52;;;;;;;1.95;0.75;;;;;;;19.40;33.99;99731.59;4301140;33;34855;-89
2023/05/08 09:38:28;;;;;;;2.00;0.80;;;;;;;19.24;32.80;99735.31;4287943;33;34021;-87
2023/05/08 09:41:14;;;;;;;2.28;0.90;;;;;;;19.27;34.65;99737.91;4300540;33;33248;-86
2023/05/08 09:43:43;;;;;;;4.85;1.10;;;;;;;18.93;33.78;99727.81;4300650;33;34700;-87
2023/05/08 09:46:22;;;;;;;4.15;0.70;;;;;;;19.38;33.56;99740.38;4300822;33;34065;-87
2023/05/08 09:48:58;;;;;;;2.78;0.50;;;;;;;19.63;32.79;99736.56;4287794;33;33934;-86
2023/05/08 09:51:27;;;;;;;1.02;0.50;;;;;;;19.72;31.81;99730.28;4300947;33;32653;-86
2023/05/08 09:53:56;;;;;;;2.72;0.60;;;;;;;20.42;30.38;99723.81;4309842;33;33802;-86
2023/05/08 09:56:37;;;;;;;3.47;0.60;;;;;;;20.14;30.42;99725.19;4289919;33;34440;-88
2023/05/08 09:59:21;;;;;;;1.85;0.62;;;;;;;20.04;30.44;99731.50;4301841;33;35016;-89
2023/05/08 10:01:49;;;;;;;2.12;0.75;;;;;;;20.03;30.60;99724.50;4301649;33;32795;-86
2023/05/08 10:04:29;;;;;;;1.37;0.60;;;;;;;20.04;30.35;99715.72;4312607;33;33724;-85
2023/05/08 10:06:59;;;;;;;3.72;0.90;;;;;;;19.76;30.26;99717.94;4296889;33;34339;-87
2023/05/08 10:09:27;;;;;;;1.58;0.62;;;;;;;19.67;32.06;99713.69;4301684;33;33598;-87
2023/05/08 10:12:13;;;;;;;1.52;0.68;;;;;;;19.86;30.70;99712.50;4316042;33;34102;-88
2023/05/08 10:14:41;;;;;;;3.45;0.52;;;;;;;19.48;31.37;99714.84;4304018;33;34080;-88
2023/05/08 10:17:14;;;;;;;1.20;0.60;;;;;;;20.19;30.16;99712.81;4317172;33;34930;-87
2023/05/08 10:19:44;;;;;;;2.62;0.60;;;;;;;20.38;30.87;99710.72;4317013;33;34370;-88
2023/05/08 10:22:13;;;;;;;1.27;0.47;;;;;;;20.25;31.26;99699.56;4317522;33;33527;-87
2023/05/08 10:24:43;;;;;;;3.60;0.50;;;;;;;20.60;28.40;99708.59;4303494;33;34092;-88
2023/05/08 10:27:15;;;;;;;1.52;0.50;;;;;;;20.17;29.51;99702.31;4315988;33;33897;-87
2023/05/08 10:29:51;;;;;;;3.08;0.50;;;;;;;20.23;29.01;99706.63;4310015;33;33870;-87
2023/05/08 10:32:20;;;;;;;1.12;0.47;;;;;;;20.59;30.88;99707.72;4317123;33;33431;-88
2023/05/08 10:35:08;;;;;;;3.47;0.60;;;;;;;20.50;30.27;99704.41;4300137;33;34217;-88
2023/05/08 10:37:37;;;;;;;1.85;0.60;;;;;;;20.54;29.44;99691.16;4302509;33;34319;-88
2023/05/08 10:40:05;;;;;;;0.88;0.40;;;;;;;20.39;29.38;99697.53;4289613;33;34774;-89
2023/05/08 10:42:36;;;;;;;1.70;0.57;;;;;;;20.27;29.73;99689.88;4289502;33;34392;-89
2023/05/08 10:45:04;;;;;;;1.35;0.50;;;;;;;20.91;30.29;99679.88;4289693;33;34393;-88
2023/05/08 10:47:35;;;;;;;0.68;0.30;;;;;;;20.95;31.45;99681.53;4289377;33;34119;-88
2023/05/08 10:50:09;;;;;;;2.42;0.50;;;;;;;21.25;29.02;99682.63;4302947;33;35306;-92
2023/05/08 10:52:43;;;;;;;6.53;0.47;;;;;;;20.98;29.47;99680.59;4303811;33;33196;-87
2023/05/08 10:55:29;;;;;;;0.70;0.30;;;;;;;21.48;29.78;99692.69;4316609;33;33428;-89
2023/05/08 10:58:14;;;;;;;1.35;0.40;;;;;;;21.36;27.37;99683.25;4317024;33;34953;-91
2023/05/08 11:00:50;;;;;;;1.73;0.40;;;;;;;21.53;27.80;99692.56;4300351;33;33589;-93
2023/05/08 11:03:19;;;;;;;1.85;0.57;;;;;;;21.32;29.60;99686.84;4296718;33;34187;-87
2023/05/08 11:05:59;;;;;;;2.83;0.82;;;;;;;20.74;30.21;99677.56;4289513;33;33081;-87
2023/05/08 11:08:28;;;;;;;6.32;0.65;;;;;;;21.07;30.13;99680.41;4313718;33;33721;-88
2023/05/08 11:11:01;;;;;;;35.40;3.85;;;;;;;21.11;29.57;99676.78;4317209;33;35473;-88
2023/05/08 11:13:36;;;;;;;5.45;0.70;;;;;;;21.10;29.26;99664.50;4294171;33;32896;-87
2023/05/08 11:16:08;;;;;;;9.02;1.65;;;;;;;21.54;28.68;99678.47;4277699;33;33985;-88
2023/05/08 11:18:36;;;;;;;11.82;0.88;;;;;;;20.75;29.38;99668.75;4293503;33;34810;-91
2023/05/08 11:21:22;;;;;;;0.73;0.40;;;;;;;21.37;28.99;99684.16;4304769;33;33812;-90
2023/05/08 11:23:59;;;;;;;28.70;3.72;;;;;;;21.21;27.65;99673.03;4303826;33;34202;-91
2023/05/08 11:26:39;;;;;;;4.90;0.68;;;;;;;21.64;27.75;99658.87;4316955;33;33567;-87
2023/05/08 11:29:16;;;;;;;4.82;0.80;;;;;;;21.62;25.84;99664.19;4316748;33;34043;-89
2023/05/08 11:31:49;;;;;;;1.95;0.40;;;;;;;21.57;28.42;99659.94;4292143;33;32860;-92
2023/05/08 11:34:41;;;;;;;0.88;0.35;;;;;;;21.99;26.21;99660.63;4292606;33;33036;-90
2023/05/08 11:37:10;;;;;;;3.00;0.50;;;;;;;21.70;27.35;99663.13;4317565;33;34074;-93
2023/05/08 11:39:38;;;;;;;4.68;0.80;;;;;;;21.56;27.31;99668.75;4322074;33;34350;-90
2023/05/08 11:42:35;;;;;;;5.20;0.60;;;;;;;21.69;26.02;99654.34;4316286;33;34395;-87
2023/05/08 11:45:12;;;;;;;5.47;0.65;;;;;;;21.59;27.96;99663.38;4307881;33;34454;-89
2023/05/08 11:47:44;;;;;;;42.58;3.92;;;;;;;21.66;27.73;99656.19;4302629;33;35312;-89